sensor_id;sensor_type;location;lat;lon;timestamp;temperature;humidity
13694;DHT22;6919;52.344;14.518;2023-07-20T00:01:47;16.60;99.90
13694;DHT22;6919;52.344;14.518;2023-07-20T00:04:15;16.60;99.90
13694;DHT22;6919;52.344;14.518;2023-07-20T00:06:44;16.60;99.90
13694;DHT22;6919;52.344;14.518;2023-07-20T00:09:12;16.60;99.90
13694;DHT22;6919;52.344;14.518;2023-07-20T00:11:48;16.50;99.90
13694;DHT22;6919;52.344;14.518;2023-07-20T00:14:18;16.50;99.90
13694;DHT22;6919;52.344;14.518;2023-07-20T00:16:47;16.60;99.90
13694;DHT22;6919;52.344;14.518;2023-07-20T00:19:23;16.50;99.90
13694;DHT22;6919;52.344;14.518;2023-07-20T00:21:51;16.50;99.90
13694;DHT22;6919;52.344;14.518;2023-07-20T00:24:20;16.40;99.90
13694;DHT22;6919;52.344;14.518;2023-07-20T00:26:50;16.40;99.90
13694;DHT22;6919;52.344;14.518;2023-07-20T00:29:18;16.30;99.90
13694;DHT22;6919;52.344;14.518;2023-07-20T00:31:47;16.30;99.90
13694;DHT22;6919;52.344;14.518;2023-07-20T00:34:17;16.30;99.90
13694;DHT22;6919;52.344;14.518;2023-07-20T00:36:46;16.30;99.90
13694;DHT22;6919;52.344;14.518;2023-07-20T00:39:15;16.30;99.90
13694;DHT22;6919;52.344;14.518;2023-07-20T00:41:44;16.00;99.90
13694;DHT22;6919;52.344;14.518;2023-07-20T00:44:13;16.10;99.90
13694;DHT22;6919;52.344;14.518;2023-07-20T00:46:42;16.10;99.90
13694;DHT22;6919;52.344;14.518;2023-07-20T00:49:11;16.20;99.90
13694;DHT22;6919;52.344;14.518;2023-07-20T00:51:39;16.20;99.90
13694;DHT22;6919;52.344;14.518;2023-07-20T00:54:08;16.30;99.90
13694;DHT22;6919;52.344;14.518;2023-07-20T00:56:37;16.30;99.90
13694;DHT22;6919;52.344;14.518;2023-07-20T00:59:06;16.20;99.90
13694;DHT22;6919;52.344;14.518;2023-07-20T01:01:36;16.20;99.90
13694;DHT22;6919;52.344;14.518;2023-07-20T01:04:04;16.20;99.90
13694;DHT22;6919;52.344;14.518;2023-07-20T01:06:39;16.20;99.90
13694;DHT22;6919;52.344;14.518;2023-07-20T01:09:16;16.20;99.90
13694;DHT22;6919;52.344;14.518;2023-07-20T01:11:53;16.10;99.90
13694;DHT22;6919;52.344;14.518;2023-07-20T01:14:31;16.10;99.90
13694;DHT22;6919;52.344;14.518;2023-07-20T01:17:01;16.10;99.90
13694;DHT22;6919;52.344;14.518;2023-07-20T01:19:30;16.00;99.90
13694;DHT22;6919;52.344;14.518;2023-07-20T01:22:03;16.00;99.90
13694;DHT22;6919;52.344;14.518;2023-07-20T01:24:56;15.90;99.90
13694;DHT22;6919;52.344;14.518;2023-07-20T01:28:04;16.00;99.90
13694;DHT22;6919;52.344;14.518;2023-07-20T01:30:56;16.40;99.90
13694;DHT22;6919;52.344;14.518;2023-07-20T01:33:33;16.00;99.90
13694;DHT22;6919;52.344;14.518;2023-07-20T01:36:03;16.00;99.90
13694;DHT22;6919;52.344;14.518;2023-07-20T01:38:32;15.80;99.90
13694;DHT22;6919;52.344;14.518;2023-07-20T01:41:01;15.80;99.90
13694;DHT22;6919;52.344;14.518;2023-07-20T01:43:31;15.70;99.90
13694;DHT22;6919;52.344;14.518;2023-07-20T01:45:59;15.70;99.90
13694;DHT22;6919;52.344;14.518;2023-07-20T01:48:27;15.60;99.90
13694;DHT22;6919;52.344;14.518;2023-07-20T01:50:57;15.70;99.90
13694;DHT22;6919;52.344;14.518;2023-07-20T01:53:25;15.60;99.90
13694;DHT22;6919;52.344;14.518;2023-07-20T01:55:54;15.50;99.90
13694;DHT22;6919;52.344;14.518;2023-07-20T01:58:22;15.40;99.90
13694;DHT22;6919;52.344;14.518;2023-07-20T02:00:51;15.40;99.90
13694;DHT22;6919;52.344;14.518;2023-07-20T02:03:19;15.60;99.90
13694;DHT22;6919;52.344;14.518;2023-07-20T02:05:50;15.50;99.90
13694;DHT22;6919;52.344;14.518;2023-07-20T02:08:20;15.50;99.90
13694;DHT22;6919;52.344;14.518;2023-07-20T02:10:48;15.50;99.90
13694;DHT22;6919;52.344;14.518;2023-07-20T02:13:17;15.50;99.90
13694;DHT22;6919;52.344;14.518;2023-07-20T02:15:45;15.50;99.90
13694;DHT22;6919;52.344;14.518;2023-07-20T02:18:16;15.50;99.90
13694;DHT22;6919;52.344;14.518;2023-07-20T02:20:44;15.50;99.90
13694;DHT22;6919;52.344;14.518;2023-07-20T02:23:12;15.40;99.90
13694;DHT22;6919;52.344;14.518;2023-07-20T02:25:42;15.40;99.90
13694;DHT22;6919;52.344;14.518;2023-07-20T02:28:13;15.30;99.90
13694;DHT22;6919;52.344;14.518;2023-07-20T02:30:41;15.30;99.90
13694;DHT22;6919;52.344;14.518;2023-07-20T02:33:10;15.30;99.90
13694;DHT22;6919;52.344;14.518;2023-07-20T02:35:39;15.30;99.90
13694;DHT22;6919;52.344;14.518;2023-07-20T02:38:08;15.20;99.90
13694;DHT22;6919;52.344;14.518;2023-07-20T02:40:36;15.10;99.90
13694;DHT22;6919;52.344;14.518;2023-07-20T02:43:08;15.20;99.90
13694;DHT22;6919;52.344;14.518;2023-07-20T02:45:40;15.20;99.90
13694;DHT22;6919;52.344;14.518;2023-07-20T02:48:09;15.20;99.90
13694;DHT22;6919;52.344;14.518;2023-07-20T02:50:37;15.30;99.90
13694;DHT22;6919;52.344;14.518;2023-07-20T02:53:08;15.30;99.90
13694;DHT22;6919;52.344;14.518;2023-07-20T02:55:36;15.30;99.90
13694;DHT22;6919;52.344;14.518;2023-07-20T02:58:05;15.40;99.90
13694;DHT22;6919;52.344;14.518;2023-07-20T03:00:35;15.40;99.90
13694;DHT22;6919;52.344;14.518;2023-07-20T03:03:03;15.50;99.90
13694;DHT22;6919;52.344;14.518;2023-07-20T03:05:36;15.50;99.90
13694;DHT22;6919;52.344;14.518;2023-07-20T03:08:06;15.50;99.90
13694;DHT22;6919;52.344;14.518;2023-07-20T03:10:39;15.50;99.90
13694;DHT22;6919;52.344;14.518;2023-07-20T03:13:08;15.80;99.90
13694;DHT22;6919;52.344;14.518;2023-07-20T03:15:38;15.60;99.90
13694;DHT22;6919;52.344;14.518;2023-07-20T03:18:06;15.40;99.90
13694;DHT22;6919;52.344;14.518;2023-07-20T03:20:35;15.50;99.90
13694;DHT22;6919;52.344;14.518;2023-07-20T03:23:06;15.60;99.90
13694;DHT22;6919;52.344;14.518;2023-07-20T03:25:34;15.60;99.90
13694;DHT22;6919;52.344;14.518;2023-07-20T03:28:04;15.60;99.90
13694;DHT22;6919;52.344;14.518;2023-07-20T03:30:32;15.60;99.90
13694;DHT22;6919;52.344;14.518;2023-07-20T03:33:02;15.60;99.90
13694;DHT22;6919;52.344;14.518;2023-07-20T03:35:31;15.50;99.90
13694;DHT22;6919;52.344;14.518;2023-07-20T03:37:59;15.60;99.90
13694;DHT22;6919;52.344;14.518;2023-07-20T03:40:28;15.50;99.90
13694;DHT22;6919;52.344;14.518;2023-07-20T03:42:56;15.50;99.90
13694;DHT22;6919;52.344;14.518;2023-07-20T03:45:24;15.50;99.90
13694;DHT22;6919;52.344;14.518;2023-07-20T03:47:52;15.60;99.90
13694;DHT22;6919;52.344;14.518;2023-07-20T03:50:22;15.70;99.90
13694;DHT22;6919;52.344;14.518;2023-07-20T03:52:50;15.70;99.90
13694;DHT22;6919;52.344;14.518;2023-07-20T03:55:19;15.70;99.90
13694;DHT22;6919;52.344;14.518;2023-07-20T03:57:47;15.70;99.90
13694;DHT22;6919;52.344;14.518;2023-07-20T04:00:18;15.60;99.90
13694;DHT22;6919;52.344;14.518;2023-07-20T04:02:46;15.60;99.90
13694;DHT22;6919;52.344;14.518;2023-07-20T04:05:15;15.60;99.90
13694;DHT22;6919;52.344;14.518;2023-07-20T04:07:44;15.60;99.90
13694;DHT22;6919;52.344;14.518;2023-07-20T04:10:13;15.50;99.90
13694;DHT22;6919;52.344;14.518;2023-07-20T04:12:42;15.50;99.90
13694;DHT22;6919;52.344;14.518;2023-07-20T04:15:10;15.60;99.90
13694;DHT22;6919;52.344;14.518;2023-07-20T04:17:40;15.60;99.90
13694;DHT22;6919;52.344;14.518;2023-07-20T04:20:08;15.70;99.90
13694;DHT22;6919;52.344;14.518;2023-07-20T04:22:37;15.70;99.90
13694;DHT22;6919;52.344;14.518;2023-07-20T04:25:08;15.80;99.90
13694;DHT22;6919;52.344;14.518;2023-07-20T04:27:36;15.90;99.90
13694;DHT22;6919;52.344;14.518;2023-07-20T04:30:07;15.90;99.90
13694;DHT22;6919;52.344;14.518;2023-07-20T04:32:37;15.90;99.90
13694;DHT22;6919;52.344;14.518;2023-07-20T04:35:18;16.00;99.90
13694;DHT22;6919;52.344;14.518;2023-07-20T04:38:06;16.20;99.90
13694;DHT22;6919;52.344;14.518;2023-07-20T04:40:36;16.30;99.90
13694;DHT22;6919;52.344;14.518;2023-07-20T04:43:04;16.40;99.90
13694;DHT22;6919;52.344;14.518;2023-07-20T04:45:32;16.40;99.90
13694;DHT22;6919;52.344;14.518;2023-07-20T04:48:01;16.30;99.90
13694;DHT22;6919;52.344;14.518;2023-07-20T04:50:29;16.40;99.90
13694;DHT22;6919;52.344;14.518;2023-07-20T04:52:57;16.30;99.90
13694;DHT22;6919;52.344;14.518;2023-07-20T04:55:25;16.40;99.90
13694;DHT22;6919;52.344;14.518;2023-07-20T04:57:55;16.40;99.90
13694;DHT22;6919;52.344;14.518;2023-07-20T05:00:24;16.40;99.90
13694;DHT22;6919;52.344;14.518;2023-07-20T05:02:52;16.40;99.90
13694;DHT22;6919;52.344;14.518;2023-07-20T05:05:21;16.40;99.90
13694;DHT22;6919;52.344;14.518;2023-07-20T05:07:49;16.40;99.90
13694;DHT22;6919;52.344;14.518;2023-07-20T05:10:18;16.40;99.90
13694;DHT22;6919;52.344;14.518;2023-07-20T05:12:47;16.40;99.90
13694;DHT22;6919;52.344;14.518;2023-07-20T05:15:17;16.30;99.90
13694;DHT22;6919;52.344;14.518;2023-07-20T05:17:45;16.40;99.90
13694;DHT22;6919;52.344;14.518;2023-07-20T05:20:15;16.40;99.90
13694;DHT22;6919;52.344;14.518;2023-07-20T05:22:43;16.40;99.90
13694;DHT22;6919;52.344;14.518;2023-07-20T05:25:12;16.20;99.90
13694;DHT22;6919;52.344;14.518;2023-07-20T05:27:41;16.70;99.90
13694;DHT22;6919;52.344;14.518;2023-07-20T05:30:10;16.80;99.90
13694;DHT22;6919;52.344;14.518;2023-07-20T05:32:40;16.90;99.90
13694;DHT22;6919;52.344;14.518;2023-07-20T05:35:08;17.00;99.90
13694;DHT22;6919;52.344;14.518;2023-07-20T05:37:38;17.40;99.90
13694;DHT22;6919;52.344;14.518;2023-07-20T05:40:08;17.30;99.90
13694;DHT22;6919;52.344;14.518;2023-07-20T05:42:39;17.30;99.90
13694;DHT22;6919;52.344;14.518;2023-07-20T05:45:07;17.20;99.90
13694;DHT22;6919;52.344;14.518;2023-07-20T05:47:36;17.50;99.90
13694;DHT22;6919;52.344;14.518;2023-07-20T05:50:06;17.50;99.90
13694;DHT22;6919;52.344;14.518;2023-07-20T05:52:35;17.40;99.90
13694;DHT22;6919;52.344;14.518;2023-07-20T05:55:06;17.40;99.90
13694;DHT22;6919;52.344;14.518;2023-07-20T05:57:35;17.40;99.90
13694;DHT22;6919;52.344;14.518;2023-07-20T06:00:09;17.30;99.90
13694;DHT22;6919;52.344;14.518;2023-07-20T06:02:41;17.20;99.90
13694;DHT22;6919;52.344;14.518;2023-07-20T06:05:11;17.20;99.90
13694;DHT22;6919;52.344;14.518;2023-07-20T06:07:39;17.30;99.90
13694;DHT22;6919;52.344;14.518;2023-07-20T06:10:08;17.20;99.90
13694;DHT22;6919;52.344;14.518;2023-07-20T06:12:37;17.20;99.90
13694;DHT22;6919;52.344;14.518;2023-07-20T06:15:16;17.20;99.90
13694;DHT22;6919;52.344;14.518;2023-07-20T06:17:54;17.20;99.90
13694;DHT22;6919;52.344;14.518;2023-07-20T06:20:24;17.30;99.90
13694;DHT22;6919;52.344;14.518;2023-07-20T06:22:53;17.40;99.90
13694;DHT22;6919;52.344;14.518;2023-07-20T06:25:21;17.40;99.90
13694;DHT22;6919;52.344;14.518;2023-07-20T06:27:50;17.50;99.90
13694;DHT22;6919;52.344;14.518;2023-07-20T06:30:19;17.60;99.90
13694;DHT22;6919;52.344;14.518;2023-07-20T06:32:47;17.80;99.90
13694;DHT22;6919;52.344;14.518;2023-07-20T06:35:16;18.20;99.90
13694;DHT22;6919;52.344;14.518;2023-07-20T06:37:46;18.50;99.90
13694;DHT22;6919;52.344;14.518;2023-07-20T06:40:15;18.80;99.90
13694;DHT22;6919;52.344;14.518;2023-07-20T06:42:47;18.90;99.90
13694;DHT22;6919;52.344;14.518;2023-07-20T06:45:18;19.00;99.90
13694;DHT22;6919;52.344;14.518;2023-07-20T06:47:46;19.10;99.90
13694;DHT22;6919;52.344;14.518;2023-07-20T06:50:15;19.40;99.90
13694;DHT22;6919;52.344;14.518;2023-07-20T06:52:45;19.50;99.90
13694;DHT22;6919;52.344;14.518;2023-07-20T06:55:15;19.40;99.90
13694;DHT22;6919;52.344;14.518;2023-07-20T06:57:49;19.70;99.90
13694;DHT22;6919;52.344;14.518;2023-07-20T07:00:19;19.80;99.90
13694;DHT22;6919;52.344;14.518;2023-07-20T07:02:47;20.10;99.90
13694;DHT22;6919;52.344;14.518;2023-07-20T07:05:17;20.40;99.90
13694;DHT22;6919;52.344;14.518;2023-07-20T07:07:48;20.80;99.90
13694;DHT22;6919;52.344;14.518;2023-07-20T07:10:17;20.60;99.90
13694;DHT22;6919;52.344;14.518;2023-07-20T07:12:46;20.20;99.90
13694;DHT22;6919;52.344;14.518;2023-07-20T07:15:14;19.80;99.90
13694;DHT22;6919;52.344;14.518;2023-07-20T07:17:43;19.50;99.90
13694;DHT22;6919;52.344;14.518;2023-07-20T07:20:11;19.20;99.90
13694;DHT22;6919;52.344;14.518;2023-07-20T07:22:50;19.40;99.90
13694;DHT22;6919;52.344;14.518;2023-07-20T07:25:19;19.60;99.90
13694;DHT22;6919;52.344;14.518;2023-07-20T07:27:50;19.80;99.90
13694;DHT22;6919;52.344;14.518;2023-07-20T07:30:19;19.80;99.90
13694;DHT22;6919;52.344;14.518;2023-07-20T07:32:48;19.80;99.90
13694;DHT22;6919;52.344;14.518;2023-07-20T07:35:16;19.70;99.90
13694;DHT22;6919;52.344;14.518;2023-07-20T07:37:44;19.60;99.90
13694;DHT22;6919;52.344;14.518;2023-07-20T07:40:33;19.70;99.90
13694;DHT22;6919;52.344;14.518;2023-07-20T07:43:01;20.10;99.90
13694;DHT22;6919;52.344;14.518;2023-07-20T07:45:30;20.40;99.90
13694;DHT22;6919;52.344;14.518;2023-07-20T07:47:59;20.60;99.90
13694;DHT22;6919;52.344;14.518;2023-07-20T07:50:28;20.20;99.90
13694;DHT22;6919;52.344;14.518;2023-07-20T07:52:56;20.40;99.90
13694;DHT22;6919;52.344;14.518;2023-07-20T07:55:25;20.40;99.90
13694;DHT22;6919;52.344;14.518;2023-07-20T07:57:56;20.30;99.90
13694;DHT22;6919;52.344;14.518;2023-07-20T08:00:24;20.40;99.90
13694;DHT22;6919;52.344;14.518;2023-07-20T08:02:54;20.70;99.90
13694;DHT22;6919;52.344;14.518;2023-07-20T08:05:22;20.50;99.90
13694;DHT22;6919;52.344;14.518;2023-07-20T08:07:50;20.20;99.90
13694;DHT22;6919;52.344;14.518;2023-07-20T08:10:19;20.10;99.90
13694;DHT22;6919;52.344;14.518;2023-07-20T08:12:48;20.40;99.90
13694;DHT22;6919;52.344;14.518;2023-07-20T08:15:18;20.70;99.90
13694;DHT22;6919;52.344;14.518;2023-07-20T08:17:46;20.80;99.90
13694;DHT22;6919;52.344;14.518;2023-07-20T08:20:15;20.70;99.90
13694;DHT22;6919;52.344;14.518;2023-07-20T08:22:44;20.10;99.90
13694;DHT22;6919;52.344;14.518;2023-07-20T08:25:14;19.70;99.90
13694;DHT22;6919;52.344;14.518;2023-07-20T08:27:43;19.60;99.90
13694;DHT22;6919;52.344;14.518;2023-07-20T08:30:13;19.70;99.90
13694;DHT22;6919;52.344;14.518;2023-07-20T08:32:43;19.80;99.90
13694;DHT22;6919;52.344;14.518;2023-07-20T08:35:11;19.50;99.90
13694;DHT22;6919;52.344;14.518;2023-07-20T08:37:42;19.70;99.90
13694;DHT22;6919;52.344;14.518;2023-07-20T08:40:11;19.90;99.90
13694;DHT22;6919;52.344;14.518;2023-07-20T08:42:42;20.40;99.90
13694;DHT22;6919;52.344;14.518;2023-07-20T08:45:13;20.60;99.90
13694;DHT22;6919;52.344;14.518;2023-07-20T08:47:45;20.30;99.90
13694;DHT22;6919;52.344;14.518;2023-07-20T08:50:17;19.90;99.90
13694;DHT22;6919;52.344;14.518;2023-07-20T08:52:46;20.10;99.90
13694;DHT22;6919;52.344;14.518;2023-07-20T08:55:15;20.40;99.90
13694;DHT22;6919;52.344;14.518;2023-07-20T08:57:45;20.30;99.90
13694;DHT22;6919;52.344;14.518;2023-07-20T09:00:15;20.40;99.90
13694;DHT22;6919;52.344;14.518;2023-07-20T09:02:46;20.40;99.90
13694;DHT22;6919;52.344;14.518;2023-07-20T09:05:17;20.70;99.90
13694;DHT22;6919;52.344;14.518;2023-07-20T09:07:46;21.10;99.90
13694;DHT22;6919;52.344;14.518;2023-07-20T09:10:14;21.20;99.90
13694;DHT22;6919;52.344;14.518;2023-07-20T09:12:44;21.10;99.90
13694;DHT22;6919;52.344;14.518;2023-07-20T09:15:12;21.40;99.90
13694;DHT22;6919;52.344;14.518;2023-07-20T09:17:47;21.80;99.90
13694;DHT22;6919;52.344;14.518;2023-07-20T09:20:17;21.60;99.90
13694;DHT22;6919;52.344;14.518;2023-07-20T09:22:50;21.40;99.90
13694;DHT22;6919;52.344;14.518;2023-07-20T09:25:22;21.90;99.90
13694;DHT22;6919;52.344;14.518;2023-07-20T09:27:55;22.00;99.90
13694;DHT22;6919;52.344;14.518;2023-07-20T09:30:25;22.20;99.90
13694;DHT22;6919;52.344;14.518;2023-07-20T09:32:58;22.10;99.90
13694;DHT22;6919;52.344;14.518;2023-07-20T09:35:27;22.10;99.90
13694;DHT22;6919;52.344;14.518;2023-07-20T09:38:08;21.70;99.90
13694;DHT22;6919;52.344;14.518;2023-07-20T09:40:40;21.40;99.90
13694;DHT22;6919;52.344;14.518;2023-07-20T09:43:12;21.30;99.90
13694;DHT22;6919;52.344;14.518;2023-07-20T09:45:44;21.50;99.90
13694;DHT22;6919;52.344;14.518;2023-07-20T09:48:17;20.80;99.90
13694;DHT22;6919;52.344;14.518;2023-07-20T09:50:52;21.10;99.90
13694;DHT22;6919;52.344;14.518;2023-07-20T09:53:24;21.20;99.90
13694;DHT22;6919;52.344;14.518;2023-07-20T09:55:53;21.30;99.90
13694;DHT22;6919;52.344;14.518;2023-07-20T09:58:22;21.60;99.90
13694;DHT22;6919;52.344;14.518;2023-07-20T10:00:51;21.70;99.90
13694;DHT22;6919;52.344;14.518;2023-07-20T10:03:29;22.10;99.90
13694;DHT22;6919;52.344;14.518;2023-07-20T10:06:05;22.40;97.00
13694;DHT22;6919;52.344;14.518;2023-07-20T10:08:39;22.00;94.40
13694;DHT22;6919;52.344;14.518;2023-07-20T10:11:12;21.80;96.70
13694;DHT22;6919;52.344;14.518;2023-07-20T10:13:44;22.00;95.50
13694;DHT22;6919;52.344;14.518;2023-07-20T10:16:19;22.40;96.00
13694;DHT22;6919;52.344;14.518;2023-07-20T10:19:02;22.50;93.00
13694;DHT22;6919;52.344;14.518;2023-07-20T10:21:40;21.40;93.50
13694;DHT22;6919;52.344;14.518;2023-07-20T10:24:16;21.40;96.00
13694;DHT22;6919;52.344;14.518;2023-07-20T10:26:46;21.10;98.10
13694;DHT22;6919;52.344;14.518;2023-07-20T10:29:15;21.10;99.20
13694;DHT22;6919;52.344;14.518;2023-07-20T10:31:44;21.20;99.90
13694;DHT22;6919;52.344;14.518;2023-07-20T10:34:14;21.30;99.90
13694;DHT22;6919;52.344;14.518;2023-07-20T10:36:46;21.10;99.90
13694;DHT22;6919;52.344;14.518;2023-07-20T10:39:25;21.00;99.90
13694;DHT22;6919;52.344;14.518;2023-07-20T10:42:01;21.90;99.90
13694;DHT22;6919;52.344;14.518;2023-07-20T10:44:31;22.50;98.20
13694;DHT22;6919;52.344;14.518;2023-07-20T10:47:00;23.00;96.70
13694;DHT22;6919;52.344;14.518;2023-07-20T10:49:33;23.00;92.80
13694;DHT22;6919;52.344;14.518;2023-07-20T10:52:05;22.90;93.20
13694;DHT22;6919;52.344;14.518;2023-07-20T10:54:46;22.80;92.20
13694;DHT22;6919;52.344;14.518;2023-07-20T10:57:23;22.60;91.00
13694;DHT22;6919;52.344;14.518;2023-07-20T11:00:09;21.80;91.60
13694;DHT22;6919;52.344;14.518;2023-07-20T11:02:47;21.40;93.70
13694;DHT22;6919;52.344;14.518;2023-07-20T11:05:36;21.60;93.80
13694;DHT22;6919;52.344;14.518;2023-07-20T11:08:09;21.30;91.80
13694;DHT22;6919;52.344;14.518;2023-07-20T11:10:38;21.20;92.70
13694;DHT22;6919;52.344;14.518;2023-07-20T11:13:20;21.30;94.00
13694;DHT22;6919;52.344;14.518;2023-07-20T11:16:04;21.20;93.90
13694;DHT22;6919;52.344;14.518;2023-07-20T11:18:34;21.30;94.90
13694;DHT22;6919;52.344;14.518;2023-07-20T11:21:11;21.40;96.20
13694;DHT22;6919;52.344;14.518;2023-07-20T11:23:40;21.30;96.40
13694;DHT22;6919;52.344;14.518;2023-07-20T11:26:08;21.40;97.50
13694;DHT22;6919;52.344;14.518;2023-07-20T11:28:38;21.60;96.00
13694;DHT22;6919;52.344;14.518;2023-07-20T11:31:06;22.00;96.00
13694;DHT22;6919;52.344;14.518;2023-07-20T11:33:35;22.10;95.50
13694;DHT22;6919;52.344;14.518;2023-07-20T11:36:03;22.30;92.60
13694;DHT22;6919;52.344;14.518;2023-07-20T11:38:54;22.40;90.90
13694;DHT22;6919;52.344;14.518;2023-07-20T11:41:22;22.30;88.90
13694;DHT22;6919;52.344;14.518;2023-07-20T11:43:52;22.40;91.60
13694;DHT22;6919;52.344;14.518;2023-07-20T11:46:22;23.20;91.70
13694;DHT22;6919;52.344;14.518;2023-07-20T11:48:56;24.00;82.00
13694;DHT22;6919;52.344;14.518;2023-07-20T11:51:27;24.30;77.40
13694;DHT22;6919;52.344;14.518;2023-07-20T11:53:57;24.70;71.40
13694;DHT22;6919;52.344;14.518;2023-07-20T11:56:26;24.20;68.20
13694;DHT22;6919;52.344;14.518;2023-07-20T11:58:55;23.50;68.40
13694;DHT22;6919;52.344;14.518;2023-07-20T12:01:26;23.00;69.70
13694;DHT22;6919;52.344;14.518;2023-07-20T12:03:56;22.90;70.50
13694;DHT22;6919;52.344;14.518;2023-07-20T12:06:25;22.80;70.90
13694;DHT22;6919;52.344;14.518;2023-07-20T12:08:58;22.50;73.00
13694;DHT22;6919;52.344;14.518;2023-07-20T12:11:34;22.40;77.30
13694;DHT22;6919;52.344;14.518;2023-07-20T12:14:04;22.40;75.70
13694;DHT22;6919;52.344;14.518;2023-07-20T12:16:43;22.50;75.50
13694;DHT22;6919;52.344;14.518;2023-07-20T12:19:13;22.50;75.00
13694;DHT22;6919;52.344;14.518;2023-07-20T12:21:42;22.40;76.30
13694;DHT22;6919;52.344;14.518;2023-07-20T12:24:11;22.80;78.00
13694;DHT22;6919;52.344;14.518;2023-07-20T12:26:40;22.80;75.10
13694;DHT22;6919;52.344;14.518;2023-07-20T12:29:08;23.10;74.40
13694;DHT22;6919;52.344;14.518;2023-07-20T12:31:36;23.10;73.70
13694;DHT22;6919;52.344;14.518;2023-07-20T12:34:05;23.10;73.50
13694;DHT22;6919;52.344;14.518;2023-07-20T12:36:35;23.30;72.10
13694;DHT22;6919;52.344;14.518;2023-07-20T12:39:03;23.70;71.70
13694;DHT22;6919;52.344;14.518;2023-07-20T12:41:33;23.40;69.20
13694;DHT22;6919;52.344;14.518;2023-07-20T12:44:01;24.10;71.80
13694;DHT22;6919;52.344;14.518;2023-07-20T12:46:29;23.90;68.90
13694;DHT22;6919;52.344;14.518;2023-07-20T12:49:01;24.50;70.60
13694;DHT22;6919;52.344;14.518;2023-07-20T12:51:30;24.20;64.40
13694;DHT22;6919;52.344;14.518;2023-07-20T12:53:58;23.60;66.00
13694;DHT22;6919;52.344;14.518;2023-07-20T12:56:26;22.90;66.10
13694;DHT22;6919;52.344;14.518;2023-07-20T12:58:59;22.60;67.90
13694;DHT22;6919;52.344;14.518;2023-07-20T13:01:29;22.70;69.00
13694;DHT22;6919;52.344;14.518;2023-07-20T13:03:58;22.70;72.80
13694;DHT22;6919;52.344;14.518;2023-07-20T13:06:29;22.80;71.70
13694;DHT22;6919;52.344;14.518;2023-07-20T13:08:58;23.10;74.20
13694;DHT22;6919;52.344;14.518;2023-07-20T13:11:26;23.70;71.60
13694;DHT22;6919;52.344;14.518;2023-07-20T13:13:54;23.90;69.90
13694;DHT22;6919;52.344;14.518;2023-07-20T13:16:24;24.20;67.70
13694;DHT22;6919;52.344;14.518;2023-07-20T13:18:53;24.20;65.30
13694;DHT22;6919;52.344;14.518;2023-07-20T13:21:21;23.00;68.10
13694;DHT22;6919;52.344;14.518;2023-07-20T13:23:52;23.10;70.90
13694;DHT22;6919;52.344;14.518;2023-07-20T13:26:21;23.10;70.20
13694;DHT22;6919;52.344;14.518;2023-07-20T13:28:49;23.20;70.10
13694;DHT22;6919;52.344;14.518;2023-07-20T13:31:18;24.20;67.70
13694;DHT22;6919;52.344;14.518;2023-07-20T13:33:51;24.80;63.90
13694;DHT22;6919;52.344;14.518;2023-07-20T13:36:25;24.10;60.70
13694;DHT22;6919;52.344;14.518;2023-07-20T13:38:56;24.60;62.10
13694;DHT22;6919;52.344;14.518;2023-07-20T13:41:26;24.30;60.50
13694;DHT22;6919;52.344;14.518;2023-07-20T13:43:56;24.50;60.40
13694;DHT22;6919;52.344;14.518;2023-07-20T13:46:24;24.60;59.00
13694;DHT22;6919;52.344;14.518;2023-07-20T13:48:57;24.50;58.40
13694;DHT22;6919;52.344;14.518;2023-07-20T13:51:25;24.70;58.60
13694;DHT22;6919;52.344;14.518;2023-07-20T13:53:54;24.30;56.30
13694;DHT22;6919;52.344;14.518;2023-07-20T13:56:23;23.80;59.30
13694;DHT22;6919;52.344;14.518;2023-07-20T13:58:52;23.90;60.60
13694;DHT22;6919;52.344;14.518;2023-07-20T14:01:20;23.70;59.40
13694;DHT22;6919;52.344;14.518;2023-07-20T14:03:52;24.40;59.20
13694;DHT22;6919;52.344;14.518;2023-07-20T14:06:23;25.30;57.20
13694;DHT22;6919;52.344;14.518;2023-07-20T14:08:55;25.30;55.30
13694;DHT22;6919;52.344;14.518;2023-07-20T14:11:24;25.30;57.00
13694;DHT22;6919;52.344;14.518;2023-07-20T14:13:56;26.20;54.10
13694;DHT22;6919;52.344;14.518;2023-07-20T14:16:31;26.70;51.90
13694;DHT22;6919;52.344;14.518;2023-07-20T14:19:06;27.30;50.00
13694;DHT22;6919;52.344;14.518;2023-07-20T14:21:36;26.60;48.50
13694;DHT22;6919;52.344;14.518;2023-07-20T14:24:07;25.40;51.20
13694;DHT22;6919;52.344;14.518;2023-07-20T14:26:36;25.10;53.20
13694;DHT22;6919;52.344;14.518;2023-07-20T14:29:05;24.70;52.20
13694;DHT22;6919;52.344;14.518;2023-07-20T14:31:34;24.30;53.00
13694;DHT22;6919;52.344;14.518;2023-07-20T14:34:02;23.70;55.30
13694;DHT22;6919;52.344;14.518;2023-07-20T14:36:31;23.50;56.20
13694;DHT22;6919;52.344;14.518;2023-07-20T14:39:02;24.40;55.70
13694;DHT22;6919;52.344;14.518;2023-07-20T14:41:30;25.20;53.20
13694;DHT22;6919;52.344;14.518;2023-07-20T14:43:59;25.80;50.20
13694;DHT22;6919;52.344;14.518;2023-07-20T14:46:27;26.70;48.60
13694;DHT22;6919;52.344;14.518;2023-07-20T14:48:56;26.40;47.20
13694;DHT22;6919;52.344;14.518;2023-07-20T14:51:24;26.30;45.30
13694;DHT22;6919;52.344;14.518;2023-07-20T14:54:06;25.40;46.10
13694;DHT22;6919;52.344;14.518;2023-07-20T14:56:34;25.70;45.50
13694;DHT22;6919;52.344;14.518;2023-07-20T14:59:04;26.60;44.70
13694;DHT22;6919;52.344;14.518;2023-07-20T15:01:32;27.10;43.70
13694;DHT22;6919;52.344;14.518;2023-07-20T15:04:01;27.10;41.40
13694;DHT22;6919;52.344;14.518;2023-07-20T15:06:29;27.50;38.20
13694;DHT22;6919;52.344;14.518;2023-07-20T15:08:58;28.00;36.60
13694;DHT22;6919;52.344;14.518;2023-07-20T15:11:29;28.50;35.50
13694;DHT22;6919;52.344;14.518;2023-07-20T15:13:57;28.00;35.30
13694;DHT22;6919;52.344;14.518;2023-07-20T15:16:26;27.90;35.40
13694;DHT22;6919;52.344;14.518;2023-07-20T15:18:55;26.80;35.40
13694;DHT22;6919;52.344;14.518;2023-07-20T15:21:23;27.00;36.10
13694;DHT22;6919;52.344;14.518;2023-07-20T15:23:52;26.80;36.80
13694;DHT22;6919;52.344;14.518;2023-07-20T15:26:21;26.60;36.00
13694;DHT22;6919;52.344;14.518;2023-07-20T15:28:50;26.80;35.20
13694;DHT22;6919;52.344;14.518;2023-07-20T15:31:19;26.10;34.30
13694;DHT22;6919;52.344;14.518;2023-07-20T15:34:07;25.70;34.00
13694;DHT22;6919;52.344;14.518;2023-07-20T15:36:40;25.70;34.20
13694;DHT22;6919;52.344;14.518;2023-07-20T15:39:09;25.50;35.10
13694;DHT22;6919;52.344;14.518;2023-07-20T15:41:37;25.00;34.60
13694;DHT22;6919;52.344;14.518;2023-07-20T15:44:06;25.10;36.10
13694;DHT22;6919;52.344;14.518;2023-07-20T15:46:45;25.10;36.40
13694;DHT22;6919;52.344;14.518;2023-07-20T15:49:16;25.10;35.80
13694;DHT22;6919;52.344;14.518;2023-07-20T15:51:44;24.70;37.50